Arnegard, ND

7:14 PM CST on January 31, 2015 (GMT -0600)
Sloulin International | Change Station
CLOSE
Current Station
Airport
Location: Williston,
Elevation: 1906 ft
Nearby Weather Stations

Elev 1906 ft 48.17 °N, 103.64 °W | Updated 22 minutes ago

Snow
Snow
1 °F
Feels Like -17 °F
N
14
Wind Variable Wind from NE

Today
High -- | Low -- °F
--% Chance of Precip.
Yesterday
High -- | Low -- °F
Precip. -- in
8:22 AM 5:52 PM
Waxing Gibbous, 92% visible
Pressure 30.56 in
Visibility 1.8 miles
Clouds Overcast 1900 ft
Windchill -17 °F
Dew Point -5 °F
Humidity 75%
Rainfall 0.12 in
Snow Depth Not available.
UV 0 out of 12
Pollen .10 out of 12
Air Quality Not available.
Flu Activity Not available.
METAR KISN 010052Z AUTO 05012KT 1 3/4SM -SN OVC019 M17/M21 A3042 RMK AO2 SLP348 P0001 T11721206

More Conditions Fewer Conditions

Pressure 30.56 in
Visibility 1.8 miles
Clouds Overcast 1900 ft
Windchill -17 °F
Dew Point -5 °F
Humidity 75%
Rainfall 0.12 in
Snow Depth Not available.
UV 0 out of 12
Pollen .10 out of 12
Air Quality Not available.
Flu Activity Not available.
METAR KISN 010052Z AUTO 05012KT 1 3/4SM -SN OVC019 M17/M21 A3042 RMK AO2 SLP348 P0001 T11721206

More Conditions Fewer Conditions

10-Day Weather Forecast

Almanac

Astronomy

Jan. 31, 2015 Rise Set
Actual Time
Civil Twilight
Nautical Twilight
Astronomical Twilight
Moon
Length of Visible Light
Length of Day
Tomorrow will be .
, % of the Moon is Illuminated

Today's Extremes

State Highs State Lows

Community

WunderPhotos

Upload Photos

1,792,273 photos uploaded!

WunderBlogs® & News

Nearby

Air Quality

  Air Quality AQ Index Pollutant
Not available.

Snow Depth

Station Depth Elevation

Earthquake Activity

City Distance Mag. Time & Date
Minimum magnitude displayed is 2.5.

Coastal Water Temperatures

Place Temperature

Nearby Weather Stations